Parkville, Minnesota
Current Conditions -  °F | °C
As of 12:12 AM on Thursday 29 Jan 2015 (Local Time) from KEVM Reporting Station
Haze Haze  
Wind Chill: 23°   Ceiling: 600
Heat Index: 28°   Visibility: 4mi
Dew Point: 28°   Wind: 5mph
Humidity: 100%   Direction: 300°WNW
Pressure: 29.83"   Gusts: NA
Location:  47.4996°N, 92.6723°W
Report Text: KEVM 290612Z AUTO 30004KT 4SM BR OVC006 M02/M02 A2983 RMK AO2
Loading
Personal Weather Stations






























Interactive Weather Map New forecast layout! Learn more

10-Day Weather Forecast

Advertisements
Track Severe Weather on mobile